createdAt,value
2022-10-10T06:06:20.199Z,99110.19
2022-10-10T06:08:47.746Z,99111.09
2022-10-10T06:11:17.161Z,99107.00
2022-10-10T06:13:45.212Z,99109.44
2022-10-10T06:16:12.999Z,99113.75
2022-10-10T06:18:40.605Z,99114.56
2022-10-10T06:21:09.030Z,99113.13
2022-10-10T06:23:37.921Z,99123.78
2022-10-10T06:26:05.512Z,99125.53
2022-10-10T06:28:34.494Z,99116.66
2022-10-10T06:31:03.536Z,99126.00
2022-10-10T06:33:31.262Z,99124.81
2022-10-10T06:35:58.835Z,99128.88
2022-10-10T06:38:27.514Z,99126.13
2022-10-10T06:41:00.389Z,99135.47
2022-10-10T06:43:28.226Z,99138.03
2022-10-10T06:45:55.751Z,99145.81
2022-10-10T06:48:23.351Z,99146.44
2022-10-10T06:50:58.517Z,99149.63
2022-10-10T06:53:26.965Z,99145.13
2022-10-10T06:55:56.610Z,99155.25
2022-10-10T06:58:25.485Z,99156.00
2022-10-10T07:00:53.807Z,99165.38
2022-10-10T07:03:22.244Z,99165.13
2022-10-10T07:05:51.538Z,99170.19
2022-10-10T07:08:19.481Z,99175.38
2022-10-10T07:10:47.200Z,99177.00
2022-10-10T07:13:16.488Z,99176.78
2022-10-10T07:15:44.222Z,99178.50
2022-10-10T07:18:12.219Z,99166.03
2022-10-10T07:20:40.736Z,99169.47
2022-10-10T07:23:08.393Z,99162.50
2022-10-10T07:25:38.829Z,99164.22
2022-10-10T07:28:06.712Z,99160.53
2022-10-10T07:30:40.686Z,99165.25
2022-10-10T07:33:08.338Z,99179.78
2022-10-10T07:35:35.951Z,99180.22
2022-10-10T07:38:03.952Z,99178.38
2022-10-10T07:40:31.568Z,99176.50
2022-10-10T07:42:59.607Z,99178.72
2022-10-10T07:45:27.294Z,99173.78
2022-10-10T07:47:56.216Z,99168.28
2022-10-10T07:50:25.971Z,99167.09
2022-10-10T07:52:53.607Z,99166.81
2022-10-10T07:55:21.195Z,99170.59
2022-10-10T07:57:53.136Z,99171.84
2022-10-10T08:00:21.191Z,99183.28
2022-10-10T08:02:48.994Z,99187.16
2022-10-10T08:05:17.998Z,99194.69
2022-10-10T08:07:45.764Z,99190.00
2022-10-10T08:10:13.374Z,99188.22
2022-10-10T08:12:40.936Z,99187.00
2022-10-10T08:15:09.521Z,99184.44
2022-10-10T08:17:37.109Z,99183.81
2022-10-10T08:20:05.087Z,99179.97
2022-10-10T08:22:34.032Z,99177.75
2022-10-10T08:25:01.577Z,99176.59
2022-10-10T08:27:29.220Z,99167.50
2022-10-10T08:29:56.771Z,99175.16
2022-10-10T08:32:24.334Z,99173.78
2022-10-10T08:34:52.035Z,99178.66
2022-10-10T08:37:19.582Z,99172.72
2022-10-10T08:39:48.493Z,99168.09
2022-10-10T08:42:17.954Z,99166.00
2022-10-10T08:44:47.855Z,99162.59
2022-10-10T08:47:19.031Z,99154.81
2022-10-10T08:49:48.931Z,99166.88
2022-10-10T08:52:24.270Z,99169.41
2022-10-10T08:54:58.281Z,99163.97
2022-10-10T08:57:29.657Z,99172.53
2022-10-10T09:00:01.085Z,99166.81
2022-10-10T09:03:01.171Z,99163.44
2022-10-10T09:05:21.759Z,99164.28
2022-10-10T09:07:59.181Z,99166.00
2022-10-10T09:10:32.534Z,99172.50
2022-10-10T09:13:06.161Z,99162.75
2022-10-10T09:15:36.752Z,99164.91
2022-10-10T09:18:09.654Z,99178.59
2022-10-10T09:20:45.021Z,99176.88
2022-10-10T09:23:20.347Z,99173.44
2022-10-10T09:25:52.422Z,99171.97
2022-10-10T09:28:23.372Z,99168.63
2022-10-10T09:30:53.780Z,99169.53
2022-10-10T09:33:28.054Z,99169.38
2022-10-10T09:35:57.839Z,99170.63
2022-10-10T09:38:33.075Z,99163.97
2022-10-10T09:41:04.097Z,99174.53
2022-10-10T09:43:33.150Z,99171.38
2022-10-10T09:46:01.134Z,99172.00
2022-10-10T09:48:31.995Z,99161.59
2022-10-10T09:51:00.415Z,99157.88
2022-10-10T09:53:28.278Z,99151.31
2022-10-10T09:55:55.948Z,99150.44
2022-10-10T09:58:28.993Z,99150.09
2022-10-10T10:00:57.048Z,99153.00
2022-10-10T10:03:24.964Z,99148.88
2022-10-10T10:05:57.834Z,99152.19
2022-10-10T10:08:28.102Z,99160.97
2022-10-10T10:10:58.690Z,99160.19
2022-10-10T10:13:29.986Z,99161.75
2022-10-10T10:16:04.390Z,99159.41
2022-10-10T10:18:32.763Z,99153.75
2022-10-10T10:21:19.340Z,99154.50
2022-10-10T10:23:53.186Z,99150.13
2022-10-10T10:26:23.709Z,99153.78
2022-10-10T10:28:53.758Z,99161.84
2022-10-10T10:31:42.650Z,99157.78
2022-10-10T10:34:27.398Z,99160.06
2022-10-10T10:36:58.682Z,99163.94
2022-10-10T10:39:38.464Z,99164.59
2022-10-10T10:42:11.854Z,99162.97
2022-10-10T10:44:43.545Z,99168.41
2022-10-10T10:47:30.249Z,99167.63
2022-10-10T10:50:07.109Z,99162.53
2022-10-10T10:52:49.865Z,99160.66
2022-10-10T10:55:23.610Z,99154.81
2022-10-10T10:58:28.359Z,99159.72
2022-10-10T11:01:23.827Z,99158.88
2022-10-10T11:05:18.611Z,99171.16
2022-10-10T11:07:17.940Z,99172.50
2022-10-10T11:09:51.479Z,99166.16
2022-10-10T11:12:24.875Z,99169.09
2022-10-10T11:14:56.614Z,99171.34
2022-10-10T11:17:36.227Z,99162.03
2022-10-10T11:20:09.606Z,99166.41
2022-10-10T11:22:46.381Z,99161.06
2022-10-10T11:25:17.750Z,99161.81
2022-10-10T11:27:48.033Z,99161.75
2022-10-10T11:30:17.256Z,99155.75
2022-10-10T11:32:52.976Z,99151.41
2022-10-10T11:35:31.952Z,99152.94
2022-10-10T11:38:04.222Z,99160.09
2022-10-10T11:40:38.107Z,99148.13
2022-10-10T11:43:09.087Z,99140.34
2022-10-10T11:45:45.293Z,99137.66
2022-10-10T11:48:26.935Z,99145.03
2022-10-10T11:50:59.215Z,99139.47
2022-10-10T11:53:32.509Z,99147.50
2022-10-10T11:56:04.589Z,99142.63
2022-10-10T11:58:35.932Z,99148.19
2022-10-10T12:01:07.895Z,99146.03
2022-10-10T12:03:36.939Z,99144.75
2022-10-10T12:06:10.030Z,99141.59
2022-10-10T12:08:39.937Z,99139.53
2022-10-10T12:11:13.651Z,99137.88
2022-10-10T12:13:43.258Z,99139.09
2022-10-10T12:16:12.738Z,99135.56
2022-10-10T12:18:44.710Z,99140.66
2022-10-10T12:21:14.337Z,99140.50
2022-10-10T12:23:42.919Z,99137.16
2022-10-10T12:26:15.591Z,99131.91
2022-10-10T12:29:02.362Z,99129.09
2022-10-10T12:31:37.220Z,99126.31
2022-10-10T12:34:15.643Z,99122.31
2022-10-10T12:37:21.640Z,99122.38
2022-10-10T12:40:03.231Z,99121.06
2022-10-10T12:42:33.513Z,99119.94
2022-10-10T12:45:01.459Z,99114.88
2022-10-10T12:47:53.016Z,99116.22
2022-10-10T12:50:24.743Z,99117.19
2022-10-10T12:52:54.492Z,99108.56
2022-10-10T12:55:23.892Z,99105.75
2022-10-10T12:57:52.976Z,99109.41
2022-10-10T13:00:23.229Z,99105.16
2022-10-10T13:02:53.025Z,99112.09
2022-10-10T13:05:35.050Z,99116.69
2022-10-10T13:08:05.493Z,99109.09
2022-10-10T13:10:33.973Z,99107.09
2022-10-10T13:13:04.101Z,99106.81
2022-10-10T13:15:33.946Z,99103.06
2022-10-10T13:18:02.180Z,99102.25
2022-10-10T13:20:36.945Z,99103.50
2022-10-10T13:23:06.484Z,99100.69
2022-10-10T13:25:41.146Z,99112.25
2022-10-10T13:28:17.708Z,99107.94
2022-10-10T13:30:45.999Z,99104.34
2022-10-10T13:33:17.506Z,99104.00
2022-10-10T13:35:47.272Z,99106.56
2022-10-10T13:38:16.553Z,99103.47
2022-10-10T13:40:45.037Z,99107.06
2022-10-10T13:43:15.075Z,99104.84
2022-10-10T13:45:46.686Z,99116.31
2022-10-10T13:48:29.183Z,99104.13
2022-10-10T13:51:07.767Z,99100.53
2022-10-10T13:53:50.544Z,99101.00
2022-10-10T13:56:22.744Z,99099.72
2022-10-10T13:58:52.618Z,99098.63
2022-10-10T14:01:32.336Z,99098.53
2022-10-10T14:04:04.856Z,99102.94
2022-10-10T14:06:34.929Z,99087.28
2022-10-10T14:09:11.043Z,99098.19
2022-10-10T14:11:39.546Z,99101.00
2022-10-10T14:14:09.720Z,99108.50
2022-10-10T14:16:38.027Z,99103.78
2022-10-10T14:19:16.458Z,99100.06
2022-10-10T14:21:46.961Z,99100.84
2022-10-10T14:24:16.236Z,99101.06
2022-10-10T14:26:45.825Z,99091.00
2022-10-10T14:29:14.838Z,99097.47
2022-10-10T14:31:45.307Z,99091.22
2022-10-10T14:34:13.979Z,99090.69
2022-10-10T14:36:48.238Z,99093.41
2022-10-10T14:39:17.021Z,99089.38
2022-10-10T14:41:45.242Z,99086.38
2022-10-10T14:44:13.546Z,99095.53
2022-10-10T14:46:41.696Z,99091.53
2022-10-10T14:49:16.406Z,99083.16
2022-10-10T14:51:44.094Z,99087.22
2022-10-10T14:54:14.343Z,99080.09
2022-10-10T14:57:07.169Z,99082.44
2022-10-10T14:59:48.509Z,99084.91
2022-10-10T15:02:18.442Z,99096.97
2022-10-10T15:04:46.018Z,99090.19
2022-10-10T15:07:15.249Z,99085.94
2022-10-10T15:10:09.740Z,99094.84
2022-10-10T15:12:32.401Z,99078.69
2022-10-10T15:14:59.925Z,99099.47
2022-10-10T15:17:29.584Z,99095.56
2022-10-10T15:19:57.170Z,99094.47
2022-10-10T15:22:24.775Z,99093.84
2022-10-10T15:24:53.679Z,99093.47
2022-10-10T15:27:21.486Z,99091.03
2022-10-10T15:29:49.093Z,99093.50
2022-10-10T15:32:16.628Z,99081.22
2022-10-10T15:34:44.162Z,99076.28
2022-10-10T15:37:11.749Z,99081.25
2022-10-10T15:39:41.068Z,99091.97
2022-10-10T15:42:16.100Z,99102.19
2022-10-10T15:44:47.175Z,99093.06
2022-10-10T15:47:16.199Z,99099.22
2022-10-10T15:49:44.246Z,99095.47
2022-10-10T15:52:11.978Z,99101.28
2022-10-10T15:54:39.714Z,99102.50
2022-10-10T15:57:07.745Z,99110.97
2022-10-10T15:59:39.196Z,99112.63
2022-10-10T16:02:10.819Z,99111.53
2022-10-10T16:04:38.570Z,99110.53
2022-10-10T16:07:24.542Z,99121.78
2022-10-10T16:09:54.506Z,99121.38
2022-10-10T16:12:22.135Z,99125.59
2022-10-10T16:14:51.094Z,99125.72
2022-10-10T16:17:23.183Z,99123.06
2022-10-10T16:19:51.474Z,99129.25
2022-10-10T16:22:19.055Z,99130.44
2022-10-10T16:24:58.325Z,99131.47
2022-10-10T16:27:36.559Z,99139.81
2022-10-10T16:30:06.797Z,99135.94
2022-10-10T16:32:39.310Z,99136.63
2022-10-10T16:35:09.738Z,99147.50
2022-10-10T16:37:37.339Z,99149.94
2022-10-10T16:40:05.675Z,99155.56
2022-10-10T16:42:33.305Z,99160.16
2022-10-10T16:45:00.804Z,99165.94
2022-10-10T16:47:29.736Z,99166.91
2022-10-10T16:49:57.285Z,99177.78
2022-10-10T16:52:24.828Z,99189.41
2022-10-10T16:54:52.620Z,99193.25
2022-10-10T16:57:20.254Z,99192.00
2022-10-10T16:59:47.922Z,99192.19
2022-10-10T17:02:16.296Z,99192.22
2022-10-10T17:04:45.217Z,99202.47
2022-10-10T17:07:12.790Z,99205.88
2022-10-10T17:09:40.350Z,99208.66
2022-10-10T17:12:08.050Z,99208.22
2022-10-10T17:14:35.654Z,99220.16
2022-10-10T17:17:18.532Z,99217.13
2022-10-10T17:19:49.134Z,99222.75
2022-10-10T17:22:17.344Z,99220.19
2022-10-10T17:24:45.168Z,99227.72
2022-10-10T17:27:13.150Z,99230.59
2022-10-10T17:29:40.708Z,99225.97
2022-10-10T17:32:08.287Z,99235.03
2022-10-10T17:34:36.127Z,99231.09
2022-10-10T17:37:05.441Z,99245.38
2022-10-10T17:39:33.095Z,99251.63
2022-10-10T17:42:01.040Z,99253.63
2022-10-10T17:44:28.765Z,99254.06
2022-10-10T17:46:56.506Z,99261.94
2022-10-10T17:49:24.573Z,99271.81
2022-10-10T17:51:52.334Z,99263.16
2022-10-10T17:54:23.185Z,99273.34
2022-10-10T17:56:50.773Z,99277.50
2022-10-10T17:59:18.397Z,99278.53
2022-10-10T18:01:46.404Z,99272.00
2022-10-10T18:04:15.481Z,99283.47
2022-10-10T18:06:43.209Z,99270.69
2022-10-10T18:09:10.867Z,99272.41
2022-10-10T18:11:39.833Z,99273.81
2022-10-10T18:14:07.877Z,99280.84
2022-10-10T18:16:36.029Z,99282.34
2022-10-10T18:19:04.637Z,99279.78
2022-10-10T18:21:32.363Z,99277.13
2022-10-10T18:24:00.619Z,99279.59
2022-10-10T18:26:30.079Z,99298.28
2022-10-10T18:28:59.372Z,99308.53
2022-10-10T18:31:28.343Z,99310.31
2022-10-10T18:33:56.464Z,99305.56
2022-10-10T18:36:26.190Z,99317.69
2022-10-10T18:38:53.741Z,99312.56
2022-10-10T18:41:22.355Z,99320.56
2022-10-10T18:43:50.672Z,99331.28
2022-10-10T18:46:22.163Z,99331.38
2022-10-10T18:48:53.868Z,99329.41
2022-10-10T18:51:26.047Z,99319.31
2022-10-10T18:53:56.232Z,99330.09
2022-10-10T18:56:25.158Z,99333.75
2022-10-10T18:58:54.609Z,99337.38
2022-10-10T19:01:25.509Z,99339.44
2022-10-10T19:03:53.922Z,99325.41
2022-10-10T19:06:22.691Z,99339.25
2022-10-10T19:08:51.991Z,99334.91
2022-10-10T19:11:21.902Z,99320.09
2022-10-10T19:13:50.210Z,99330.09
2022-10-10T19:16:18.374Z,99343.22
2022-10-10T19:18:47.476Z,99346.81
2022-10-10T19:21:18.834Z,99350.66
2022-10-10T19:23:46.801Z,99352.53
2022-10-10T19:26:16.049Z,99356.72
2022-10-10T19:28:44.291Z,99354.34
2022-10-10T19:31:17.628Z,99366.13
2022-10-10T19:33:51.620Z,99368.19
2022-10-10T19:36:19.991Z,99365.03
2022-10-10T19:38:48.340Z,99378.03
2022-10-10T19:41:17.094Z,99374.88
2022-10-10T19:43:48.668Z,99371.38
2022-10-10T19:46:18.955Z,99373.16
2022-10-10T19:48:49.113Z,99375.13
2022-10-10T19:51:18.810Z,99382.75
2022-10-10T19:53:47.672Z,99391.28
2022-10-10T19:56:20.593Z,99398.22
2022-10-10T19:58:49.084Z,99393.78
2022-10-10T20:01:19.097Z,99401.66
2022-10-10T20:03:49.349Z,99403.28
2022-10-10T20:06:19.875Z,99411.38
2022-10-10T20:08:48.787Z,99420.47
2022-10-10T20:11:18.724Z,99422.84
2022-10-10T20:13:47.271Z,99425.25
2022-10-10T20:16:16.670Z,99425.94
2022-10-10T20:18:45.224Z,99434.16
2022-10-10T20:21:18.054Z,99442.78
2022-10-10T20:23:47.031Z,99449.00
2022-10-10T20:26:17.183Z,99454.81
2022-10-10T20:28:46.261Z,99455.66
2022-10-10T20:31:20.254Z,99452.44
2022-10-10T20:33:49.174Z,99457.34
2022-10-10T20:36:19.738Z,99455.88
2022-10-10T20:38:52.872Z,99459.13
2022-10-10T20:41:23.719Z,99462.72
2022-10-10T20:43:51.803Z,99458.28
2022-10-10T20:46:20.293Z,99448.00
2022-10-10T20:48:55.120Z,99460.97
2022-10-10T20:51:25.086Z,99465.28
2022-10-10T20:53:57.192Z,99469.38
2022-10-10T20:56:26.370Z,99477.25
2022-10-10T20:58:55.188Z,99459.59
2022-10-10T21:01:25.285Z,99480.47
2022-10-10T21:03:53.001Z,99485.13
2022-10-10T21:06:22.898Z,99484.94
2022-10-10T21:08:52.630Z,99491.28
2022-10-10T21:11:20.756Z,99492.63
2022-10-10T21:13:54.062Z,99491.06
2022-10-10T21:16:23.588Z,99499.09
2022-10-10T21:18:57.686Z,99491.75
2022-10-10T21:21:26.895Z,99493.63
2022-10-10T21:23:56.707Z,99496.38
2022-10-10T21:26:29.577Z,99487.03
2022-10-10T21:28:57.985Z,99501.13
2022-10-10T21:31:27.623Z,99497.72
2022-10-10T21:33:55.361Z,99510.34
2022-10-10T21:36:24.094Z,99513.47
2022-10-10T21:38:51.692Z,99514.25
2022-10-10T21:41:21.893Z,99523.28
2022-10-10T21:43:52.159Z,99535.38
2022-10-10T21:46:23.397Z,99528.50
2022-10-10T21:48:51.355Z,99528.81
2022-10-10T21:51:19.192Z,99527.75
2022-10-10T21:53:46.933Z,99528.75
2022-10-10T21:56:14.883Z,99532.81
2022-10-10T21:58:45.161Z,99541.75
2022-10-10T22:01:14.965Z,99541.22
2022-10-10T22:03:43.264Z,99551.34
2022-10-10T22:06:12.758Z,99554.28
2022-10-10T22:08:41.915Z,99560.78
2022-10-10T22:11:12.100Z,99547.75
2022-10-10T22:13:40.050Z,99558.66
2022-10-10T22:16:09.571Z,99559.97
2022-10-10T22:18:37.787Z,99563.88
2022-10-10T22:21:06.639Z,99567.66
2022-10-10T22:23:34.551Z,99561.38
2022-10-10T22:26:02.677Z,99564.44
2022-10-10T22:28:30.497Z,99574.41
2022-10-10T22:30:58.354Z,99577.81
2022-10-10T22:33:27.284Z,99577.03
2022-10-10T22:35:54.858Z,99581.78
2022-10-10T22:38:22.508Z,99585.44
2022-10-10T22:40:50.221Z,99597.50
2022-10-10T22:43:17.775Z,99595.94
2022-10-10T22:45:45.694Z,99594.72
2022-10-10T22:48:13.400Z,99601.47
2022-10-10T22:50:42.427Z,99598.38
2022-10-10T22:53:10.027Z,99601.88
2022-10-10T22:55:37.611Z,99602.03
2022-10-10T22:58:05.226Z,99594.59
2022-10-10T23:00:33.092Z,99611.91
2022-10-10T23:03:00.669Z,99615.47
2022-10-10T23:05:28.271Z,99624.63
2022-10-10T23:07:57.224Z,99621.84
2022-10-10T23:10:24.899Z,99622.28
2022-10-10T23:12:52.602Z,99621.91
2022-10-10T23:15:20.235Z,99629.59
2022-10-10T23:17:47.849Z,99620.84
2022-10-10T23:20:15.471Z,99630.34
2022-10-10T23:22:43.031Z,99629.88
2022-10-10T23:25:12.113Z,99632.53
2022-10-10T23:27:39.856Z,99633.25
2022-10-10T23:30:08.376Z,99634.91
2022-10-10T23:32:36.077Z,99630.94
2022-10-10T23:35:03.652Z,99638.94
2022-10-10T23:37:31.444Z,99639.88
2022-10-10T23:39:59.068Z,99634.97
2022-10-10T23:42:28.053Z,99636.34
2022-10-10T23:44:55.684Z,99638.31
2022-10-10T23:47:23.297Z,99638.06
2022-10-10T23:49:50.847Z,99649.91
2022-10-10T23:52:18.503Z,99652.81
2022-10-10T23:54:46.132Z,99661.06
2022-10-10T23:57:13.798Z,99660.44
2022-10-10T23:59:42.774Z,99659.66
